createdAt,value
2018-02-12T00:00:52.515Z,19.70
2018-02-12T00:01:52.528Z,19.10
2018-02-12T00:02:52.549Z,17.70
2018-02-12T00:03:52.558Z,21.80
2018-02-12T00:04:52.573Z,22.40
2018-02-12T00:05:52.586Z,18.70
2018-02-12T00:06:52.601Z,19.90
2018-02-12T00:07:52.616Z,18.90
2018-02-12T00:08:52.631Z,21.30
2018-02-12T00:09:52.645Z,19.50
2018-02-12T00:10:52.660Z,20.30
2018-02-12T00:11:52.676Z,20.50
2018-02-12T00:12:52.689Z,19.40
2018-02-12T00:13:52.702Z,19.80
2018-02-12T00:14:52.717Z,19.10
2018-02-12T00:15:52.731Z,20.10
2018-02-12T00:16:52.746Z,21.70
2018-02-12T00:17:52.759Z,20.40
2018-02-12T00:18:52.821Z,20.60
2018-02-12T00:19:52.789Z,18.90
2018-02-12T00:20:52.803Z,20.80
2018-02-12T00:21:52.819Z,19.90
2018-02-12T00:22:52.832Z,20.70
2018-02-12T00:23:52.846Z,25.20
2018-02-12T00:24:52.861Z,21.50
2018-02-12T00:25:52.875Z,20.20
2018-02-12T00:26:52.891Z,19.50
2018-02-12T00:27:52.903Z,19.40
2018-02-12T00:28:52.920Z,19.10
2018-02-12T00:29:52.932Z,20.00
2018-02-12T00:30:52.947Z,20.80
2018-02-12T00:31:52.961Z,25.70
2018-02-12T00:32:52.976Z,21.80
2018-02-12T00:33:52.990Z,20.50
2018-02-12T00:34:53.004Z,19.20
2018-02-12T00:35:53.019Z,19.40
2018-02-12T00:36:53.040Z,19.90
2018-02-12T00:37:53.046Z,20.10
2018-02-12T00:38:53.061Z,20.20
2018-02-12T00:39:53.076Z,19.90
2018-02-12T00:40:53.091Z,19.80
2018-02-12T00:41:53.105Z,19.80
2018-02-12T00:42:53.118Z,20.30
2018-02-12T00:43:53.134Z,18.20
2018-02-12T00:44:53.148Z,18.70
2018-02-12T00:45:53.161Z,18.40
2018-02-12T00:46:53.176Z,19.30
2018-02-12T00:47:53.190Z,22.80
2018-02-12T00:48:53.205Z,19.90
2018-02-12T00:49:53.219Z,24.40
2018-02-12T00:50:53.237Z,22.50
2018-02-12T00:51:53.248Z,20.40
2018-02-12T00:52:53.262Z,20.70
2018-02-12T00:53:53.276Z,21.90
2018-02-12T00:54:53.292Z,22.80
2018-02-12T00:55:53.308Z,24.20
2018-02-12T00:56:53.320Z,21.30
2018-02-12T00:57:53.332Z,20.50
2018-02-12T00:58:53.348Z,20.70
2018-02-12T00:59:53.407Z,29.80
2018-02-12T01:00:53.377Z,21.80
2018-02-12T01:01:53.391Z,22.20
2018-02-12T01:02:53.405Z,21.60
2018-02-12T01:03:53.420Z,21.10
2018-02-12T01:04:53.434Z,23.20
2018-02-12T01:05:53.449Z,21.40
2018-02-12T01:06:53.463Z,21.80
2018-02-12T01:07:53.478Z,20.50
2018-02-12T01:08:53.491Z,21.40
2018-02-12T01:09:53.507Z,25.90
2018-02-12T01:10:53.521Z,21.10
2018-02-12T01:11:53.536Z,19.80
2018-02-12T01:12:53.550Z,24.80
2018-02-12T01:13:53.564Z,21.70
2018-02-12T01:14:53.578Z,21.10
2018-02-12T01:15:53.593Z,22.60
2018-02-12T01:16:53.608Z,21.20
2018-02-12T01:17:53.622Z,22.60
2018-02-12T01:18:53.636Z,22.20
2018-02-12T01:19:53.653Z,22.90
2018-02-12T01:20:53.667Z,19.90
2018-02-12T01:21:53.680Z,21.40
2018-02-12T01:22:53.695Z,22.70
2018-02-12T01:23:53.710Z,24.30
2018-02-12T01:24:53.725Z,20.50
2018-02-12T01:25:53.739Z,21.50
2018-02-12T01:26:53.752Z,21.20
2018-02-12T01:27:53.768Z,19.80
2018-02-12T01:28:53.784Z,20.90
2018-02-12T01:29:53.797Z,19.70
2018-02-12T01:30:53.811Z,21.20
2018-02-12T01:31:53.827Z,20.40
2018-02-12T01:32:53.841Z,21.70
2018-02-12T01:33:53.855Z,18.90
2018-02-12T01:34:53.871Z,18.70
2018-02-12T01:35:53.885Z,19.10
2018-02-12T01:36:53.900Z,17.90
2018-02-12T01:37:53.914Z,17.90
2018-02-12T01:38:53.929Z,19.60
2018-02-12T01:39:53.944Z,19.80
2018-02-12T01:40:53.959Z,18.20
2018-02-12T01:41:53.973Z,18.90
2018-02-12T01:42:53.987Z,17.20
2018-02-12T01:43:54.002Z,18.60
2018-02-12T01:44:54.017Z,20.40
2018-02-12T01:45:54.032Z,17.80
2018-02-12T01:46:54.046Z,18.20
2018-02-12T01:47:54.061Z,16.60
2018-02-12T01:48:54.076Z,17.30
2018-02-12T01:49:54.090Z,17.10
2018-02-12T01:50:54.105Z,16.70
2018-02-12T01:51:54.121Z,16.70
2018-02-12T01:52:54.135Z,16.10
2018-02-12T01:53:54.149Z,21.90
2018-02-12T01:54:54.163Z,17.80
2018-02-12T01:55:54.179Z,18.30
2018-02-12T01:56:54.193Z,19.00
2018-02-12T01:57:54.207Z,18.20
2018-02-12T01:58:54.222Z,16.80
2018-02-12T01:59:54.237Z,17.80
2018-02-12T02:00:54.252Z,17.10
2018-02-12T02:01:54.266Z,19.50
2018-02-12T02:02:54.281Z,19.10
2018-02-12T02:03:54.296Z,20.60
2018-02-12T02:04:54.311Z,18.30
2018-02-12T02:05:54.325Z,21.90
2018-02-12T02:06:54.340Z,19.20
2018-02-12T02:07:54.354Z,22.10
2018-02-12T02:08:54.369Z,19.50
2018-02-12T02:09:54.383Z,23.50
2018-02-12T02:10:54.398Z,19.70
2018-02-12T02:11:54.413Z,21.30
2018-02-12T02:12:54.428Z,22.30
2018-02-12T02:13:54.442Z,19.20
2018-02-12T02:14:54.456Z,19.40
2018-02-12T02:15:54.472Z,20.20
2018-02-12T02:16:54.487Z,20.00
2018-02-12T02:17:54.501Z,19.80
2018-02-12T02:18:54.518Z,20.40
2018-02-12T02:19:54.531Z,21.20
2018-02-12T02:20:54.545Z,21.60
2018-02-12T02:21:54.561Z,20.40
2018-02-12T02:22:54.574Z,19.20
2018-02-12T02:23:54.589Z,24.90
2018-02-12T02:24:54.604Z,22.20
2018-02-12T02:25:54.618Z,19.90
2018-02-12T02:26:54.633Z,23.20
2018-02-12T02:27:54.648Z,21.90
2018-02-12T02:28:54.670Z,21.00
2018-02-12T02:29:54.676Z,21.80
2018-02-12T02:30:54.693Z,20.40
2018-02-12T02:31:54.706Z,20.60
2018-02-12T02:32:54.721Z,21.00
2018-02-12T02:33:54.736Z,19.40
2018-02-12T02:34:54.750Z,21.90
2018-02-12T02:35:54.764Z,20.80
2018-02-12T02:36:54.880Z,21.30
2018-02-12T02:37:54.794Z,19.80
2018-02-12T02:38:54.807Z,19.40
2018-02-12T02:39:54.823Z,20.60
2018-02-12T02:40:54.837Z,20.20
2018-02-12T02:41:54.851Z,20.20
2018-02-12T02:42:54.916Z,19.60
2018-02-12T02:43:54.881Z,23.30
2018-02-12T02:44:54.895Z,22.00
2018-02-12T02:45:54.909Z,22.00
2018-02-12T02:46:54.928Z,21.50
2018-02-12T02:47:54.939Z,23.10
2018-02-12T02:48:54.959Z,21.60
2018-02-12T02:49:54.966Z,23.90
2018-02-12T02:50:54.983Z,23.90
2018-02-12T02:51:55.001Z,23.30
2018-02-12T02:52:55.012Z,22.30
2018-02-12T02:53:55.026Z,24.00
2018-02-12T02:54:55.048Z,21.70
2018-02-12T02:55:55.056Z,21.20
2018-02-12T02:56:55.070Z,20.90
2018-02-12T02:57:55.084Z,23.00
2018-02-12T02:58:55.099Z,21.50
2018-02-12T02:59:55.113Z,22.40
2018-02-12T03:00:55.134Z,23.70
2018-02-12T03:01:55.142Z,23.00
2018-02-12T03:02:55.157Z,21.50
2018-02-12T03:03:55.172Z,21.00
2018-02-12T03:04:55.186Z,21.10
2018-02-12T03:05:55.201Z,21.90
2018-02-12T03:06:55.216Z,21.30
2018-02-12T03:07:55.230Z,21.60
2018-02-12T03:08:55.245Z,21.00
2018-02-12T03:09:55.258Z,21.50
2018-02-12T03:10:55.273Z,25.60
2018-02-12T03:11:55.289Z,21.60
2018-02-12T03:12:55.353Z,22.40
2018-02-12T03:13:55.317Z,21.10
2018-02-12T03:14:55.332Z,22.80
2018-02-12T03:15:55.347Z,22.70
2018-02-12T03:16:55.362Z,21.50
2018-02-12T03:17:55.376Z,21.80
2018-02-12T03:18:55.390Z,21.20
2018-02-12T03:19:55.405Z,22.70
2018-02-12T03:20:55.420Z,20.90
2018-02-12T03:21:55.434Z,26.00
2018-02-12T03:22:55.448Z,21.50
2018-02-12T03:23:55.464Z,22.80
2018-02-12T03:24:55.479Z,28.00
2018-02-12T03:25:55.493Z,23.70
2018-02-12T03:26:55.507Z,26.80
2018-02-12T03:27:55.522Z,25.10
2018-02-12T03:28:55.537Z,23.90
2018-02-12T03:29:55.551Z,25.80
2018-02-12T03:30:55.566Z,21.80
2018-02-12T03:31:55.581Z,28.90
2018-02-12T03:32:55.595Z,21.70
2018-02-12T03:33:55.608Z,21.90
2018-02-12T03:34:55.625Z,23.90
2018-02-12T03:35:55.639Z,23.40
2018-02-12T03:36:55.654Z,23.40
2018-02-12T03:37:55.669Z,21.10
2018-02-12T03:38:55.682Z,24.90
2018-02-12T03:39:55.704Z,21.60
2018-02-12T03:40:55.713Z,24.20
2018-02-12T03:41:55.827Z,24.30
2018-02-12T03:42:55.740Z,22.20
2018-02-12T03:43:55.757Z,22.70
2018-02-12T03:44:55.771Z,22.30
2018-02-12T03:45:55.786Z,23.60
2018-02-12T03:46:55.800Z,19.70
2018-02-12T03:47:55.815Z,25.10
2018-02-12T03:48:55.830Z,22.00
2018-02-12T03:49:55.844Z,19.70
2018-02-12T03:50:55.858Z,20.30
2018-02-12T03:51:55.879Z,18.20
2018-02-12T03:52:55.888Z,19.80
2018-02-12T03:53:55.903Z,19.60
2018-02-12T03:54:55.916Z,19.10
2018-02-12T03:55:55.932Z,18.10
2018-02-12T03:56:55.947Z,17.60
2018-02-12T03:57:55.961Z,17.30
2018-02-12T03:58:55.975Z,17.70
2018-02-12T03:59:55.990Z,18.20
2018-02-12T04:00:56.011Z,17.10
2018-02-12T04:01:56.025Z,17.60
2018-02-12T04:02:56.034Z,16.30
2018-02-12T04:03:56.049Z,17.30
2018-02-12T04:04:56.063Z,16.00
2018-02-12T04:05:56.077Z,17.20
2018-02-12T04:06:56.092Z,15.90
2018-02-12T04:07:56.107Z,15.70
2018-02-12T04:08:56.122Z,16.70
2018-02-12T04:09:56.138Z,19.10
2018-02-12T04:10:56.150Z,20.00
2018-02-12T04:11:56.165Z,19.00
2018-02-12T04:12:56.180Z,20.10
2018-02-12T04:13:56.194Z,16.60
2018-02-12T04:14:56.209Z,17.90
2018-02-12T04:15:56.224Z,16.50
2018-02-12T04:16:56.239Z,18.50
2018-02-12T04:17:56.352Z,18.60
2018-02-12T04:18:56.266Z,20.30
2018-02-12T04:19:56.282Z,19.40
2018-02-12T04:20:56.297Z,20.00
2018-02-12T04:21:56.310Z,18.10
2018-02-12T04:22:56.325Z,18.50
2018-02-12T04:23:56.340Z,18.60
2018-02-12T04:24:56.355Z,18.20
2018-02-12T04:25:56.368Z,18.50
2018-02-12T04:26:56.383Z,18.90
2018-02-12T04:27:56.398Z,17.10
2018-02-12T04:28:56.412Z,16.40
2018-02-12T04:29:56.428Z,18.60
2018-02-12T04:30:56.440Z,19.20
2018-02-12T04:31:56.455Z,17.80
2018-02-12T04:32:56.470Z,17.80
2018-02-12T04:33:56.485Z,20.20
2018-02-12T04:34:56.498Z,16.70
2018-02-12T04:35:56.512Z,18.90
2018-02-12T04:36:56.527Z,17.20
2018-02-12T04:37:56.541Z,15.60
2018-02-12T04:38:56.558Z,16.90
2018-02-12T04:39:56.570Z,17.60
2018-02-12T04:40:56.584Z,16.50
2018-02-12T04:41:56.598Z,15.70
2018-02-12T04:42:56.613Z,19.10
2018-02-12T04:43:56.627Z,17.40
2018-02-12T04:44:56.643Z,17.50
2018-02-12T04:45:56.656Z,17.50
2018-02-12T04:46:56.670Z,17.50
2018-02-12T04:47:56.685Z,15.80
2018-02-12T04:48:56.699Z,16.60
2018-02-12T04:49:56.715Z,15.70
2018-02-12T04:50:56.727Z,16.70
2018-02-12T04:51:56.743Z,16.90
2018-02-12T04:52:56.759Z,18.10
2018-02-12T04:53:56.771Z,14.90
2018-02-12T04:54:56.785Z,15.10
2018-02-12T04:55:56.799Z,15.60
2018-02-12T04:56:56.814Z,15.00
2018-02-12T04:57:56.828Z,15.20
2018-02-12T04:58:56.842Z,14.30
2018-02-12T04:59:56.856Z,12.80
2018-02-12T05:00:56.871Z,14.30
2018-02-12T05:01:56.884Z,11.50
2018-02-12T05:02:56.899Z,13.40
2018-02-12T05:03:56.915Z,12.30
2018-02-12T05:04:56.928Z,13.40
2018-02-12T05:05:56.943Z,12.80
2018-02-12T05:06:56.955Z,11.90
2018-02-12T05:07:56.970Z,11.80
2018-02-12T05:08:56.985Z,14.30
2018-02-12T05:09:57.001Z,12.40
2018-02-12T05:10:57.013Z,11.90
2018-02-12T05:11:57.027Z,13.00
2018-02-12T05:12:57.042Z,13.30
2018-02-12T05:13:57.056Z,17.30
2018-02-12T05:14:57.070Z,12.40
2018-02-12T05:15:57.084Z,11.40
2018-02-12T05:16:57.098Z,13.20
2018-02-12T05:17:57.112Z,12.20
2018-02-12T05:18:57.126Z,10.40
2018-02-12T05:19:57.141Z,12.10
2018-02-12T05:20:57.156Z,12.10
2018-02-12T05:21:57.169Z,11.90
2018-02-12T05:22:57.184Z,12.20
2018-02-12T05:23:57.197Z,12.70
2018-02-12T05:24:57.212Z,18.80
2018-02-12T05:25:57.224Z,15.50
2018-02-12T05:26:57.240Z,15.80
2018-02-12T05:27:57.254Z,14.50
2018-02-12T05:28:57.269Z,13.10
2018-02-12T05:29:57.282Z,11.30
2018-02-12T05:30:57.297Z,14.80
2018-02-12T05:31:57.311Z,14.10
2018-02-12T05:32:57.326Z,14.00
2018-02-12T05:33:57.338Z,14.10
2018-02-12T05:34:57.354Z,12.10
2018-02-12T05:35:57.368Z,18.90
2018-02-12T05:36:57.382Z,15.20
2018-02-12T05:37:57.396Z,13.50
2018-02-12T05:38:57.410Z,15.00
2018-02-12T05:39:57.425Z,16.90
2018-02-12T05:40:57.443Z,16.40
2018-02-12T05:41:57.454Z,17.10
2018-02-12T05:42:57.467Z,22.60
2018-02-12T05:43:57.482Z,15.90
2018-02-12T05:44:57.497Z,16.70
2018-02-12T05:45:57.511Z,19.90
2018-02-12T05:46:57.525Z,20.10
2018-02-12T05:47:57.541Z,15.70
2018-02-12T05:48:57.554Z,16.30
2018-02-12T05:49:57.567Z,17.10
2018-02-12T05:50:57.582Z,15.80
2018-02-12T05:51:57.596Z,18.30
2018-02-12T05:52:57.611Z,26.50
2018-02-12T05:53:57.625Z,24.40
2018-02-12T05:54:57.639Z,24.50
2018-02-12T05:55:57.655Z,21.40
2018-02-12T05:56:57.667Z,21.30
2018-02-12T05:57:57.682Z,20.90
2018-02-12T05:58:57.697Z,24.20
2018-02-12T05:59:57.713Z,26.60
2018-02-12T06:00:57.726Z,36.80
2018-02-12T06:01:57.745Z,27.00
2018-02-12T06:02:57.754Z,26.90
2018-02-12T06:03:57.773Z,24.30
2018-02-12T06:04:57.783Z,21.20
2018-02-12T06:05:57.847Z,28.20
2018-02-12T06:06:57.811Z,24.00
2018-02-12T06:07:57.826Z,24.50
2018-02-12T06:08:57.840Z,21.00
2018-02-12T06:09:57.854Z,22.80
2018-02-12T06:10:57.871Z,27.40
2018-02-12T06:11:57.884Z,20.00
2018-02-12T06:12:57.898Z,28.00
2018-02-12T06:13:57.912Z,22.80
2018-02-12T06:14:57.926Z,24.60
2018-02-12T06:15:57.941Z,25.60
2018-02-12T06:16:57.955Z,21.90
2018-02-12T06:17:57.970Z,21.10
2018-02-12T06:18:57.984Z,32.30
2018-02-12T06:19:57.999Z,23.90
2018-02-12T06:20:58.014Z,21.20
2018-02-12T06:21:58.027Z,27.00
2018-02-12T06:22:58.042Z,25.00
2018-02-12T06:23:58.057Z,26.50
2018-02-12T06:24:58.070Z,21.50
2018-02-12T06:25:58.084Z,20.60
2018-02-12T06:26:58.099Z,24.80
2018-02-12T06:27:58.114Z,28.50
2018-02-12T06:28:58.128Z,29.10
2018-02-12T06:29:58.142Z,23.90
2018-02-12T06:30:58.196Z,20.00
2018-02-12T06:31:58.175Z,20.00
2018-02-12T06:32:58.186Z,21.40
2018-02-12T06:33:58.200Z,23.80
2018-02-12T06:34:58.213Z,20.20
2018-02-12T06:35:58.228Z,26.80
2018-02-12T06:36:58.244Z,21.20
2018-02-12T06:37:58.256Z,22.90
2018-02-12T06:38:58.271Z,26.50
2018-02-12T06:39:58.284Z,28.00
2018-02-12T06:40:58.299Z,25.70
2018-02-12T06:41:58.313Z,24.90
2018-02-12T06:42:58.327Z,24.50
2018-02-12T06:43:58.342Z,21.20
2018-02-12T06:44:58.357Z,18.00
2018-02-12T06:45:58.370Z,22.70
2018-02-12T06:46:58.384Z,23.20
2018-02-12T06:47:58.399Z,25.90
2018-02-12T06:48:58.413Z,27.50
2018-02-12T06:49:58.426Z,33.40
2018-02-12T06:50:58.440Z,19.70
2018-02-12T06:51:58.455Z,26.60
2018-02-12T06:52:58.471Z,17.60
2018-02-12T06:53:58.482Z,18.30
2018-02-12T06:54:58.497Z,22.20
2018-02-12T06:55:58.515Z,28.60
2018-02-12T06:56:58.527Z,20.90
2018-02-12T06:57:58.540Z,17.40
2018-02-12T06:58:58.554Z,20.80
2018-02-12T06:59:58.571Z,16.50
2018-02-12T07:00:58.687Z,20.10
2018-02-12T07:01:58.597Z,19.70
2018-02-12T07:02:58.612Z,22.40
2018-02-12T07:03:58.626Z,19.40
2018-02-12T07:04:58.640Z,17.80
2018-02-12T07:05:58.654Z,16.90
2018-02-12T07:06:58.668Z,25.80
2018-02-12T07:07:58.683Z,17.30
2018-02-12T07:08:58.698Z,16.60
2018-02-12T07:09:58.711Z,17.00
2018-02-12T07:10:58.725Z,17.40
2018-02-12T07:11:58.740Z,16.20
2018-02-12T07:12:58.754Z,19.70
2018-02-12T07:13:58.768Z,15.90
2018-02-12T07:14:58.782Z,15.90
2018-02-12T07:15:58.798Z,16.30
2018-02-12T07:16:58.812Z,15.30
2018-02-12T07:17:58.825Z,14.40
2018-02-12T07:18:58.840Z,12.60
2018-02-12T07:19:58.855Z,13.80
2018-02-12T07:20:58.870Z,15.10
2018-02-12T07:21:59.033Z,16.60
2018-02-12T07:22:59.048Z,17.70
2018-02-12T07:23:58.912Z,14.90
2018-02-12T07:24:58.927Z,17.00
2018-02-12T07:25:58.940Z,16.60
2018-02-12T07:26:58.955Z,14.50
2018-02-12T07:27:59.066Z,13.70
2018-02-12T07:28:59.013Z,19.10
2018-02-12T07:29:59.041Z,16.30
2018-02-12T07:30:59.013Z,16.00
2018-02-12T07:31:59.077Z,12.50
2018-02-12T07:32:59.042Z,14.30
2018-02-12T07:33:59.056Z,14.90
2018-02-12T07:34:59.071Z,14.60
2018-02-12T07:35:59.098Z,13.40
2018-02-12T07:36:59.287Z,15.80
2018-02-12T07:37:59.114Z,14.20
2018-02-12T07:38:59.145Z,12.30
2018-02-12T07:39:59.157Z,15.50
2018-02-12T07:40:59.157Z,11.60
2018-02-12T07:41:59.213Z,12.80
2018-02-12T07:42:59.213Z,13.80
2018-02-12T07:43:59.212Z,11.00
2018-02-12T07:44:59.317Z,12.00
2018-02-12T07:45:59.230Z,10.00
2018-02-12T07:46:59.272Z,16.50
2018-02-12T07:47:59.259Z,10.80
2018-02-12T07:48:59.273Z,9.30
2018-02-12T07:49:59.287Z,14.30
2018-02-12T07:50:59.304Z,12.90
2018-02-12T07:51:59.316Z,11.50
2018-02-12T07:52:59.332Z,10.30
2018-02-12T07:53:59.348Z,12.40
2018-02-12T07:54:59.360Z,11.40
2018-02-12T07:55:59.374Z,11.30
2018-02-12T07:56:59.389Z,11.60
2018-02-12T07:57:59.403Z,9.90
2018-02-12T07:58:59.418Z,14.70
2018-02-12T07:59:59.433Z,9.00
2018-02-12T08:00:59.447Z,13.40
2018-02-12T08:01:59.462Z,13.90
2018-02-12T08:02:59.475Z,11.70
2018-02-12T08:03:59.508Z,13.70
2018-02-12T08:04:59.510Z,11.30
2018-02-12T08:05:59.522Z,10.50
2018-02-12T08:06:59.537Z,13.90
2018-02-12T08:07:59.555Z,15.50
2018-02-12T08:08:59.566Z,14.20
2018-02-12T08:09:59.732Z,11.10
2018-02-12T08:10:59.639Z,13.10
2018-02-12T08:11:59.725Z,15.70
2018-02-12T08:12:59.640Z,14.50
2018-02-12T08:13:59.637Z,15.30
2018-02-12T08:14:59.652Z,16.90
2018-02-12T08:15:59.667Z,13.40
2018-02-12T08:16:59.683Z,11.50
2018-02-12T08:17:59.764Z,12.10
2018-02-12T08:18:59.764Z,12.40
2018-02-12T08:19:59.742Z,10.70
2018-02-12T08:20:59.755Z,15.10
2018-02-12T08:21:59.792Z,10.70
2018-02-12T08:22:59.789Z,14.40
2018-02-12T08:23:59.858Z,9.40
2018-02-12T08:25:59.815Z,12.60
2018-02-12T08:26:59.906Z,10.80
2018-02-12T08:27:59.845Z,16.20
2018-02-12T08:28:59.860Z,15.90
2018-02-12T08:29:59.875Z,10.90
2018-02-12T08:30:59.889Z,14.70
2018-02-12T08:31:59.905Z,15.60
2018-02-12T08:32:59.920Z,13.50
2018-02-12T08:33:59.934Z,17.00
2018-02-12T08:34:59.950Z,11.90
2018-02-12T08:35:59.967Z,13.00
2018-02-12T08:36:59.980Z,11.30
2018-02-12T08:37:59.994Z,9.40
2018-02-12T08:39:00.012Z,14.90
2018-02-12T08:40:00.127Z,13.40
2018-02-12T08:41:00.041Z,13.30
2018-02-12T08:42:00.054Z,11.60
2018-02-12T08:43:00.070Z,13.10
2018-02-12T08:44:00.085Z,9.10
2018-02-12T08:45:00.100Z,12.10
2018-02-12T08:46:00.114Z,7.90
2018-02-12T08:47:00.130Z,12.80
2018-02-12T08:48:00.145Z,10.20
2018-02-12T08:49:00.160Z,9.40
2018-02-12T08:50:00.181Z,9.80
2018-02-12T08:51:00.190Z,10.50
2018-02-12T08:52:00.205Z,11.80
2018-02-12T08:53:00.220Z,11.70
2018-02-12T08:54:00.234Z,7.60
2018-02-12T08:55:00.249Z,9.00
2018-02-12T08:56:00.265Z,6.80
2018-02-12T08:57:00.280Z,10.30
2018-02-12T08:58:00.296Z,6.50
2018-02-12T08:59:00.337Z,6.60
2018-02-12T09:00:00.344Z,8.00
2018-02-12T09:01:00.340Z,6.60
2018-02-12T09:02:00.529Z,5.50
2018-02-12T09:03:00.458Z,8.90
2018-02-12T09:04:00.439Z,7.70
2018-02-12T09:05:00.455Z,10.40
2018-02-12T09:06:00.419Z,7.70
2018-02-12T09:07:00.441Z,7.50
2018-02-12T09:08:00.455Z,10.80
2018-02-12T09:09:00.562Z,10.00
2018-02-12T09:10:00.487Z,8.70
2018-02-12T09:11:00.526Z,13.60
2018-02-12T09:12:00.532Z,8.10
2018-02-12T09:13:00.518Z,9.80
2018-02-12T09:14:00.532Z,9.70
2018-02-12T09:15:00.547Z,6.50
2018-02-12T09:16:00.562Z,10.90
2018-02-12T09:17:00.578Z,9.40
2018-02-12T09:18:00.644Z,8.70
2018-02-12T09:19:00.607Z,8.20
2018-02-12T09:20:00.622Z,11.60
2018-02-12T09:21:00.638Z,10.70
2018-02-12T09:22:00.752Z,7.00
2018-02-12T09:23:00.667Z,7.40
2018-02-12T09:24:00.682Z,12.50
2018-02-12T09:25:00.699Z,7.30
2018-02-12T09:26:00.718Z,9.40
2018-02-12T09:27:00.928Z,9.00
2018-02-12T09:28:00.743Z,8.80
2018-02-12T09:29:00.759Z,10.50
2018-02-12T09:30:00.773Z,9.30
2018-02-12T09:31:00.788Z,9.00
2018-02-12T09:32:00.813Z,8.50
2018-02-12T09:33:00.819Z,13.10
2018-02-12T09:34:00.834Z,9.00
2018-02-12T09:35:00.849Z,10.70
2018-02-12T09:36:00.865Z,11.10
2018-02-12T09:37:00.881Z,12.40
2018-02-12T09:38:00.896Z,12.20
2018-02-12T09:39:00.918Z,12.20
2018-02-12T09:40:00.926Z,11.40
2018-02-12T09:41:00.941Z,10.40
2018-02-12T09:42:00.955Z,9.60
2018-02-12T09:43:01.067Z,9.20
2018-02-12T09:44:00.988Z,10.00
2018-02-12T09:45:01.002Z,10.20
2018-02-12T09:46:01.016Z,10.50
2018-02-12T09:47:01.031Z,9.90
2018-02-12T09:48:01.047Z,11.90
2018-02-12T09:49:01.062Z,12.50
2018-02-12T09:50:01.076Z,11.50
2018-02-12T09:51:01.092Z,11.20
2018-02-12T09:52:01.107Z,10.50
2018-02-12T09:53:01.130Z,10.60
2018-02-12T09:54:01.139Z,10.30
2018-02-12T09:55:01.155Z,12.20
2018-02-12T09:56:01.168Z,10.50
2018-02-12T09:57:01.183Z,15.40
2018-02-12T09:58:01.198Z,10.00
2018-02-12T09:59:01.215Z,15.50
2018-02-12T10:00:01.229Z,14.00
2018-02-12T10:01:01.244Z,12.10
2018-02-12T10:02:01.509Z,16.30
2018-02-12T10:03:01.274Z,19.60
2018-02-12T10:04:01.290Z,12.20
2018-02-12T10:05:01.305Z,14.20
2018-02-12T10:06:01.320Z,16.00
2018-02-12T10:07:01.335Z,13.60
2018-02-12T10:08:01.351Z,15.20
2018-02-12T10:09:01.366Z,16.20
2018-02-12T10:10:01.381Z,16.20
2018-02-12T10:11:01.397Z,18.40
2018-02-12T10:12:01.413Z,19.10
2018-02-12T10:13:01.428Z,21.30
2018-02-12T10:14:01.442Z,17.60
2018-02-12T10:15:01.458Z,18.40
2018-02-12T10:16:01.474Z,12.90
2018-02-12T10:17:01.490Z,17.10
2018-02-12T10:18:01.511Z,17.50
2018-02-12T10:19:01.593Z,13.30
2018-02-12T10:20:01.535Z,13.00
2018-02-12T10:21:01.554Z,13.30
2018-02-12T10:22:01.571Z,19.30
2018-02-12T10:23:03.987Z,16.70
2018-02-12T10:24:01.605Z,12.90
2018-02-12T10:25:01.630Z,14.60
2018-02-12T10:26:01.628Z,20.60
2018-02-12T10:27:01.644Z,22.50
2018-02-12T10:28:01.658Z,15.50
2018-02-12T10:29:01.674Z,14.10
2018-02-12T10:30:01.688Z,13.70
2018-02-12T10:31:01.705Z,14.00
2018-02-12T10:32:01.719Z,16.60
2018-02-12T10:33:01.739Z,16.90
2018-02-12T10:34:01.750Z,19.80
2018-02-12T10:35:01.767Z,12.30
2018-02-12T10:36:01.783Z,13.90
2018-02-12T10:37:01.798Z,10.00
2018-02-12T10:38:01.813Z,13.80
2018-02-12T10:39:01.830Z,10.30
2018-02-12T10:40:01.844Z,12.00
2018-02-12T10:41:01.861Z,15.40
2018-02-12T10:42:01.875Z,14.70
2018-02-12T10:43:01.990Z,14.60
2018-02-12T10:44:01.907Z,14.50
2018-02-12T10:45:01.932Z,15.40
2018-02-12T10:46:01.939Z,13.50
2018-02-12T10:47:01.954Z,12.40
2018-02-12T10:48:01.970Z,20.20
2018-02-12T10:49:01.989Z,12.20
2018-02-12T10:50:02.001Z,14.10
2018-02-12T10:51:02.018Z,13.90
2018-02-12T10:52:02.033Z,18.10
2018-02-12T10:53:03.527Z,16.10
2018-02-12T10:54:02.116Z,13.10
2018-02-12T10:55:02.104Z,13.00
2018-02-12T10:56:02.098Z,10.50
2018-02-12T10:57:02.157Z,15.40
2018-02-12T10:58:02.129Z,12.10
2018-02-12T10:59:02.146Z,11.90
2018-02-12T11:00:02.210Z,14.60
2018-02-12T11:01:02.175Z,11.40
2018-02-12T11:02:02.193Z,11.30
2018-02-12T11:03:02.208Z,13.60
2018-02-12T11:04:02.227Z,11.70
2018-02-12T11:05:02.257Z,15.80
2018-02-12T11:06:02.256Z,13.50
2018-02-12T11:07:02.270Z,15.10
2018-02-12T11:08:02.293Z,11.60
2018-02-12T11:09:02.303Z,11.10
2018-02-12T11:10:02.320Z,16.80
2018-02-12T11:11:02.334Z,18.90
2018-02-12T11:12:02.353Z,13.10
2018-02-12T11:13:02.368Z,13.70
2018-02-12T11:14:02.382Z,15.80
2018-02-12T11:15:02.398Z,16.40
2018-02-12T11:16:02.415Z,16.00
2018-02-12T11:17:02.431Z,12.90
2018-02-12T11:18:02.446Z,10.60
2018-02-12T11:19:02.463Z,9.80
2018-02-12T11:20:02.479Z,14.10
2018-02-12T11:21:02.495Z,13.70
2018-02-12T11:22:02.512Z,10.50
2018-02-12T11:23:02.525Z,14.80
2018-02-12T11:24:02.551Z,11.40
2018-02-12T11:25:02.564Z,14.40
2018-02-12T11:26:02.614Z,12.70
2018-02-12T11:27:02.604Z,9.80
2018-02-12T11:28:02.606Z,11.10
2018-02-12T11:29:02.623Z,10.30
2018-02-12T11:30:02.639Z,10.60
2018-02-12T11:31:02.660Z,18.50
2018-02-12T11:32:02.688Z,14.70
2018-02-12T11:33:02.692Z,13.30
2018-02-12T11:34:02.731Z,13.20
2018-02-12T11:35:02.718Z,20.00
2018-02-12T11:36:02.735Z,20.20
2018-02-12T11:37:02.751Z,19.00
2018-02-12T11:38:02.765Z,20.70
2018-02-12T11:39:02.785Z,17.00
2018-02-12T11:40:02.807Z,15.50
2018-02-12T11:41:02.817Z,17.20
2018-02-12T11:42:02.830Z,21.10
2018-02-12T11:43:02.848Z,12.40
2018-02-12T11:44:02.866Z,11.70
2018-02-12T11:45:02.897Z,10.70
2018-02-12T11:46:02.913Z,14.40
2018-02-12T11:47:02.938Z,16.70
2018-02-12T11:48:02.929Z,15.40
2018-02-12T11:49:02.947Z,17.00
2018-02-12T11:50:02.973Z,17.30
2018-02-12T11:51:02.986Z,13.20
2018-02-12T11:52:03.025Z,16.20
2018-02-12T11:53:03.009Z,10.30
2018-02-12T11:54:03.052Z,14.80
2018-02-12T11:55:03.098Z,15.10
2018-02-12T11:56:03.083Z,13.10
2018-02-12T11:57:03.081Z,11.50
2018-02-12T11:58:03.087Z,10.70
2018-02-12T11:59:03.104Z,10.70
2018-02-12T12:00:03.121Z,10.60
2018-02-12T12:01:03.238Z,12.20
2018-02-12T12:02:03.153Z,9.40
2018-02-12T12:03:03.169Z,8.90
2018-02-12T12:04:03.187Z,11.20
2018-02-12T12:05:03.212Z,14.60
2018-02-12T12:06:03.253Z,11.00
2018-02-12T12:07:03.240Z,13.60
2018-02-12T12:08:03.252Z,8.50
2018-02-12T12:09:03.281Z,7.80
2018-02-12T12:10:03.293Z,10.60
2018-02-12T12:11:03.308Z,10.70
2018-02-12T12:12:03.320Z,12.70
2018-02-12T12:13:03.501Z,10.90
2018-02-12T12:14:03.346Z,12.10
2018-02-12T12:15:03.363Z,12.20
2018-02-12T12:16:03.379Z,11.90
2018-02-12T12:17:03.395Z,10.20
2018-02-12T12:18:03.411Z,10.10
2018-02-12T12:19:03.428Z,12.60
2018-02-12T12:20:03.444Z,16.20
2018-02-12T12:21:03.461Z,9.60
2018-02-12T12:22:03.476Z,12.60
2018-02-12T12:23:03.493Z,15.50
2018-02-12T12:24:03.509Z,15.50
2018-02-12T12:25:03.527Z,12.00
2018-02-12T12:26:03.542Z,9.70
2018-02-12T12:27:03.557Z,11.80
2018-02-12T12:28:03.575Z,13.90
2018-02-12T12:29:03.591Z,16.70
2018-02-12T12:30:03.607Z,8.80
2018-02-12T12:31:03.623Z,11.10
2018-02-12T12:32:03.639Z,11.70
2018-02-12T12:33:03.656Z,12.20
2018-02-12T12:34:03.672Z,12.60
2018-02-12T12:35:03.688Z,9.90
2018-02-12T12:36:03.704Z,12.30
2018-02-12T12:37:03.721Z,13.70
2018-02-12T12:38:03.737Z,12.00
2018-02-12T12:39:03.754Z,9.10
2018-02-12T12:40:03.820Z,12.00
2018-02-12T12:41:03.787Z,11.30
2018-02-12T12:42:03.802Z,14.00
2018-02-12T12:43:03.832Z,10.90
2018-02-12T12:44:03.843Z,10.90
2018-02-12T12:45:03.858Z,9.50
2018-02-12T12:46:03.883Z,12.10
2018-02-12T12:47:03.937Z,10.40
2018-02-12T12:48:03.919Z,13.30
2018-02-12T12:49:03.922Z,9.50
2018-02-12T12:50:03.950Z,13.20
2018-02-12T12:51:03.959Z,15.40
2018-02-12T12:52:03.968Z,11.20
2018-02-12T12:53:03.986Z,8.80
2018-02-12T12:54:04.000Z,11.60
2018-02-12T12:55:04.015Z,14.90
2018-02-12T12:56:04.031Z,12.60